createdAt,value
2018-01-22T00:01:11.100Z,25.52
2018-01-22T00:03:38.663Z,14.15
2018-01-22T00:06:06.560Z,12.32
2018-01-22T00:08:34.158Z,12.40
2018-01-22T00:11:01.731Z,14.15
2018-01-22T00:13:30.242Z,10.65
2018-01-22T00:15:58.015Z,12.18
2018-01-22T00:18:25.588Z,9.57
2018-01-22T00:20:53.180Z,10.60
2018-01-22T00:23:21.542Z,11.07
2018-01-22T00:25:49.144Z,12.32
2018-01-22T00:28:16.767Z,13.30
2018-01-22T00:30:44.594Z,12.45
2018-01-22T00:33:12.181Z,13.55
2018-01-22T00:35:39.994Z,11.75
2018-01-22T00:38:07.580Z,14.35
2018-01-22T00:40:35.164Z,10.25
2018-01-22T00:43:02.946Z,11.05
2018-01-22T00:45:30.542Z,9.73
2018-01-22T00:47:58.130Z,11.73
2018-01-22T00:50:25.742Z,9.10
2018-01-22T00:52:54.066Z,10.77
2018-01-22T00:55:22.659Z,10.98
2018-01-22T00:57:50.570Z,10.77
2018-01-22T01:00:18.904Z,17.02
2018-01-22T01:02:46.880Z,13.10
2018-01-22T01:05:14.470Z,11.73
2018-01-22T01:07:42.389Z,12.02
2018-01-22T01:10:09.979Z,9.27
2018-01-22T01:12:38.731Z,9.77
2018-01-22T01:15:06.302Z,8.90
2018-01-22T01:17:34.068Z,12.32
2018-01-22T01:20:02.411Z,13.23
2018-01-22T01:22:30.751Z,16.17
2018-01-22T01:24:58.318Z,13.00
2018-01-22T01:27:25.942Z,11.12
2018-01-22T01:29:53.529Z,9.18
2018-01-22T01:32:21.091Z,14.75
2018-01-22T01:34:48.780Z,9.75
2018-01-22T01:37:16.689Z,10.43
2018-01-22T01:39:44.271Z,14.25
2018-01-22T01:42:11.888Z,14.73
2018-01-22T01:44:39.823Z,11.98
2018-01-22T01:47:07.408Z,11.45
2018-01-22T01:49:35.001Z,10.60
2018-01-22T01:52:02.606Z,9.70
2018-01-22T01:54:30.170Z,13.60
2018-01-22T01:56:59.602Z,9.93
2018-01-22T01:59:27.950Z,9.63
2018-01-22T02:01:55.530Z,13.00
2018-01-22T02:04:23.923Z,13.98
2018-01-22T02:06:51.487Z,15.63
2018-01-22T02:09:19.554Z,13.88
2018-01-22T02:11:47.916Z,15.50
2018-01-22T02:14:15.498Z,15.88
2018-01-22T02:16:43.851Z,14.77
2018-01-22T02:19:11.707Z,12.48
2018-01-22T02:21:39.304Z,17.12
2018-01-22T02:24:07.695Z,10.65
2018-01-22T02:26:35.311Z,14.32
2018-01-22T02:29:02.886Z,13.10
2018-01-22T02:31:30.483Z,11.10
2018-01-22T02:33:59.057Z,15.75
2018-01-22T02:36:27.418Z,15.65
2018-01-22T02:38:55.015Z,12.13
2018-01-22T02:41:22.851Z,11.00
2018-01-22T02:43:51.203Z,13.60
2018-01-22T02:46:18.931Z,10.55
2018-01-22T02:48:46.549Z,11.98
2018-01-22T02:51:14.127Z,14.50
2018-01-22T02:53:42.480Z,15.68
2018-01-22T02:56:10.921Z,13.07
2018-01-22T02:58:38.685Z,15.50
2018-01-22T03:01:06.282Z,12.23
2018-01-22T03:03:36.479Z,12.25
2018-01-22T03:06:04.865Z,12.55
2018-01-22T03:08:32.630Z,13.45
2018-01-22T03:11:00.462Z,10.10
2018-01-22T03:13:28.058Z,13.65
2018-01-22T03:15:55.628Z,10.90
2018-01-22T03:18:23.233Z,11.15
2018-01-22T03:20:51.651Z,12.73
2018-01-22T03:23:19.219Z,19.33
2018-01-22T03:25:47.141Z,10.98
2018-01-22T03:28:16.486Z,9.75
2018-01-22T03:30:44.075Z,10.57
2018-01-22T03:33:11.696Z,13.62
2018-01-22T03:35:39.282Z,15.07
2018-01-22T03:38:06.868Z,12.10
2018-01-22T03:40:35.253Z,10.30
2018-01-22T03:43:02.834Z,12.55
2018-01-22T03:45:30.405Z,15.10
2018-01-22T03:47:58.356Z,10.77
2018-01-22T03:50:26.682Z,7.82
2018-01-22T03:52:54.261Z,15.07
2018-01-22T03:55:21.861Z,10.52
2018-01-22T03:57:50.214Z,8.88
2018-01-22T04:00:17.929Z,9.60
2018-01-22T04:02:45.539Z,8.45
2018-01-22T04:05:13.116Z,9.63
2018-01-22T04:07:41.452Z,11.30
2018-01-22T04:10:09.467Z,8.15
2018-01-22T04:12:37.915Z,8.73
2018-01-22T04:15:05.480Z,10.57
2018-01-22T04:17:33.089Z,8.82
2018-01-22T04:20:01.318Z,8.73
2018-01-22T04:22:29.368Z,10.00
2018-01-22T04:24:56.964Z,11.02
2018-01-22T04:27:24.535Z,11.88
2018-01-22T04:29:52.872Z,7.68
2018-01-22T04:32:21.432Z,10.30
2018-01-22T04:34:48.990Z,11.65
2018-01-22T04:37:18.155Z,9.20
2018-01-22T04:39:45.734Z,9.75
2018-01-22T04:42:13.298Z,10.18
2018-01-22T04:44:40.871Z,9.88
2018-01-22T04:47:08.479Z,11.00
2018-01-22T04:49:36.321Z,9.65
2018-01-22T04:52:03.879Z,11.77
2018-01-22T04:54:32.276Z,9.20
2018-01-22T04:56:59.847Z,10.40
2018-01-22T04:59:27.435Z,8.85
2018-01-22T05:01:55.891Z,8.48
2018-01-22T05:04:23.461Z,14.82
2018-01-22T05:06:51.032Z,9.48
2018-01-22T05:09:18.636Z,11.07
2018-01-22T05:11:46.206Z,8.63
2018-01-22T05:14:13.881Z,10.00
2018-01-22T05:16:41.771Z,12.02
2018-01-22T05:19:09.349Z,12.75
2018-01-22T05:21:36.907Z,9.10
2018-01-22T05:24:05.591Z,9.15
2018-01-22T05:26:35.514Z,12.10
2018-01-22T05:29:03.842Z,8.80
2018-01-22T05:31:31.449Z,11.07
2018-01-22T05:33:59.066Z,7.93
2018-01-22T05:36:26.646Z,13.75
2018-01-22T05:38:54.308Z,10.20
2018-01-22T05:41:21.891Z,15.23
2018-01-22T05:43:50.199Z,11.38
2018-01-22T05:46:18.046Z,11.75
2018-01-22T05:48:46.394Z,11.82
2018-01-22T05:51:14.390Z,9.48
2018-01-22T05:53:42.820Z,9.43
2018-01-22T05:56:10.427Z,13.45
2018-01-22T05:58:38.027Z,8.95
2018-01-22T06:01:05.648Z,10.82
2018-01-22T06:03:34.006Z,10.65
2018-01-22T06:06:01.619Z,11.12
2018-01-22T06:08:30.184Z,10.13
2018-01-22T06:10:58.543Z,10.30
2018-01-22T06:13:26.099Z,19.12
2018-01-22T06:15:53.830Z,10.07
2018-01-22T06:18:21.459Z,13.75
2018-01-22T06:20:49.808Z,14.45
2018-01-22T06:23:17.577Z,10.95
2018-01-22T06:25:45.401Z,10.20
2018-01-22T06:28:14.400Z,10.43
2018-01-22T06:30:41.984Z,9.25
2018-01-22T06:33:09.550Z,11.20
2018-01-22T06:35:37.138Z,13.60
2018-01-22T06:38:06.300Z,10.95
2018-01-22T06:40:34.040Z,13.90
2018-01-22T06:43:01.626Z,11.20
2018-01-22T06:45:29.258Z,10.48
2018-01-22T06:47:56.815Z,9.93
2018-01-22T06:50:24.483Z,11.80
2018-01-22T06:52:53.746Z,11.18
2018-01-22T06:55:21.774Z,9.35
2018-01-22T06:57:49.406Z,10.98
2018-01-22T07:00:17.118Z,9.85
2018-01-22T07:02:44.724Z,8.13
2018-01-22T07:05:12.486Z,10.90
2018-01-22T07:07:40.087Z,7.60
2018-01-22T07:10:07.718Z,7.28
2018-01-22T07:12:35.309Z,9.23
2018-01-22T07:15:03.088Z,8.88
2018-01-22T07:17:31.182Z,9.23
2018-01-22T07:19:59.574Z,8.75
2018-01-22T07:22:28.149Z,10.98
2018-01-22T07:24:55.762Z,9.77
2018-01-22T07:27:23.422Z,9.05
2018-01-22T07:29:51.039Z,11.30
2018-01-22T07:32:19.471Z,8.40
2018-01-22T07:34:47.792Z,8.68
2018-01-22T07:37:15.640Z,10.32
2018-01-22T07:39:43.238Z,15.43
2018-01-22T07:42:11.592Z,11.02
2018-01-22T07:44:40.093Z,7.53
2018-01-22T07:47:08.158Z,10.65
2018-01-22T07:49:36.941Z,11.63
2018-01-22T07:52:05.625Z,8.70
2018-01-22T07:54:33.366Z,9.07
2018-01-22T07:57:00.986Z,7.32
2018-01-22T07:59:28.765Z,11.23
2018-01-22T08:01:56.536Z,8.00
2018-01-22T08:04:24.121Z,9.60
2018-01-22T08:06:52.079Z,8.82
2018-01-22T08:09:19.746Z,7.45
2018-01-22T08:11:47.387Z,8.15
2018-01-22T08:14:15.096Z,8.15
2018-01-22T08:16:43.494Z,9.48
2018-01-22T08:19:11.950Z,7.85
2018-01-22T08:21:39.600Z,9.13
2018-01-22T08:24:07.177Z,9.73
2018-01-22T08:26:34.785Z,6.95
2018-01-22T08:29:02.474Z,8.20
2018-01-22T08:31:30.174Z,9.55
2018-01-22T08:33:57.759Z,10.68
2018-01-22T08:36:26.785Z,9.93
2018-01-22T08:38:54.564Z,8.68
2018-01-22T08:41:23.023Z,7.65
2018-01-22T08:43:51.945Z,6.20
2018-01-22T08:46:19.763Z,6.95
2018-01-22T08:48:47.488Z,6.55
2018-01-22T08:51:15.234Z,5.35
2018-01-22T08:53:42.858Z,7.60
2018-01-22T08:56:10.779Z,8.40
2018-01-22T08:58:38.390Z,7.97
2018-01-22T09:01:06.039Z,8.32
2018-01-22T09:03:33.753Z,7.93
2018-01-22T09:06:01.454Z,6.60
2018-01-22T09:08:29.787Z,6.00
2018-01-22T09:10:57.696Z,6.78
2018-01-22T09:13:25.989Z,6.87
2018-01-22T09:15:53.717Z,5.93
2018-01-22T09:18:21.363Z,6.65
2018-01-22T09:20:49.109Z,7.70
2018-01-22T09:23:16.769Z,5.47
2018-01-22T09:25:44.420Z,4.62
2018-01-22T09:28:12.813Z,8.20
2018-01-22T09:30:40.381Z,7.07
2018-01-22T09:33:08.173Z,7.53
2018-01-22T09:35:35.845Z,5.83
2018-01-22T09:38:04.622Z,5.18
2018-01-22T09:40:32.212Z,11.47
2018-01-22T09:43:00.698Z,3.57
2018-01-22T09:45:28.336Z,4.45
2018-01-22T09:47:56.146Z,4.87
2018-01-22T09:50:23.856Z,3.70
2018-01-22T09:52:51.545Z,4.57
2018-01-22T09:55:19.883Z,4.87
2018-01-22T09:57:47.711Z,4.67
2018-01-22T10:00:16.159Z,3.30
2018-01-22T10:02:43.905Z,4.43
2018-01-22T10:05:13.529Z,3.78
2018-01-22T10:07:41.623Z,3.70
2018-01-22T10:10:11.642Z,3.50
2018-01-22T10:12:40.680Z,3.67
2018-01-22T10:15:09.612Z,4.57
2018-01-22T10:17:38.533Z,3.50
2018-01-22T10:20:07.522Z,3.58
2018-01-22T10:22:36.483Z,3.40
2018-01-22T10:25:05.511Z,3.28
2018-01-22T10:27:34.500Z,3.60
2018-01-22T10:30:03.442Z,3.95
2018-01-22T10:32:32.374Z,5.10
2018-01-22T10:35:01.515Z,4.67
2018-01-22T10:37:30.535Z,3.47
2018-01-22T10:39:59.548Z,5.03
2018-01-22T10:42:28.573Z,4.30
2018-01-22T10:44:57.597Z,3.73
2018-01-22T10:47:26.922Z,5.37
2018-01-22T10:49:55.867Z,5.13
2018-01-22T10:52:24.795Z,2.83
2018-01-22T10:54:53.694Z,3.33
2018-01-22T10:57:22.751Z,3.80
2018-01-22T10:59:51.884Z,3.10
2018-01-22T11:02:21.678Z,4.00
2018-01-22T11:04:50.644Z,4.13
2018-01-22T11:07:19.566Z,7.83
2018-01-22T11:09:48.502Z,3.57
2018-01-22T11:12:17.558Z,3.50
2018-01-22T11:14:46.475Z,3.70
2018-01-22T11:17:15.387Z,3.30
2018-01-22T11:19:45.911Z,3.77
2018-01-22T11:22:14.994Z,2.77
2018-01-22T11:24:44.276Z,5.80
2018-01-22T11:27:13.220Z,4.80
2018-01-22T11:29:42.141Z,5.37
2018-01-22T11:32:11.135Z,3.73
2018-01-22T11:34:40.091Z,4.90
2018-01-22T11:37:09.001Z,3.73
2018-01-22T11:39:38.339Z,3.40
2018-01-22T11:42:08.002Z,4.20
2018-01-22T11:44:37.259Z,7.27
2018-01-22T11:47:06.565Z,5.00
2018-01-22T11:49:36.093Z,4.40
2018-01-22T11:52:05.122Z,4.50
2018-01-22T11:54:34.095Z,4.87
2018-01-22T11:57:03.077Z,7.13
2018-01-22T11:59:32.908Z,5.07
2018-01-22T12:02:02.805Z,4.40
2018-01-22T12:04:32.700Z,8.30
2018-01-22T12:07:02.444Z,3.73
2018-01-22T12:09:31.354Z,5.97
2018-01-22T12:12:00.460Z,8.30
2018-01-22T12:14:30.554Z,4.97
2018-01-22T12:16:59.606Z,3.80
2018-01-22T12:19:28.583Z,5.27
2018-01-22T12:21:58.245Z,4.27
2018-01-22T12:24:29.895Z,4.27
2018-01-22T12:26:59.275Z,4.20
2018-01-22T12:29:28.451Z,3.77
2018-01-22T12:31:59.114Z,3.20
2018-01-22T12:34:29.236Z,5.73
2018-01-22T12:36:58.538Z,4.40
2018-01-22T12:39:27.652Z,3.93
2018-01-22T12:41:57.734Z,3.40
2018-01-22T12:44:26.938Z,3.70
2018-01-22T12:52:04.850Z,4.53
2018-01-22T12:54:34.146Z,4.77
2018-01-22T12:59:37.918Z,4.17
2018-01-22T13:02:07.700Z,8.40
2018-01-22T13:07:12.552Z,5.17
2018-01-22T13:09:41.899Z,4.10
2018-01-22T13:12:10.912Z,8.23
2018-01-22T13:17:14.478Z,10.00
2018-01-22T13:19:44.073Z,4.83
2018-01-22T13:24:48.066Z,4.43
2018-01-22T13:27:17.048Z,4.33
2018-01-22T13:37:30.182Z,5.60
2018-01-22T13:40:05.616Z,4.80
2018-01-22T13:42:35.202Z,5.30
2018-01-22T13:47:44.441Z,6.43
2018-01-22T13:50:14.868Z,5.50
2018-01-22T13:52:43.809Z,5.87
2018-01-22T13:55:13.783Z,5.53
2018-01-22T13:57:42.958Z,6.87
2018-01-22T14:00:12.227Z,8.10
2018-01-22T14:02:41.762Z,4.97
2018-01-22T14:05:11.262Z,5.97
2018-01-22T14:07:40.195Z,5.83
2018-01-22T14:10:09.640Z,5.50
2018-01-22T14:12:39.853Z,5.07
2018-01-22T14:15:08.786Z,5.57
2018-01-22T14:17:37.890Z,7.80
2018-01-22T14:20:06.813Z,8.23
2018-01-22T14:22:35.876Z,5.27
2018-01-22T14:25:04.842Z,5.20
2018-01-22T14:27:34.113Z,4.43
2018-01-22T14:30:03.554Z,4.83
2018-01-22T14:32:33.078Z,4.50
2018-01-22T14:35:02.275Z,6.50
2018-01-22T14:37:32.381Z,4.70
2018-01-22T14:40:01.322Z,5.13
2018-01-22T14:42:30.316Z,5.67
2018-01-22T14:44:59.875Z,11.23
2018-01-22T14:47:28.886Z,6.00
2018-01-22T14:49:58.285Z,5.17
2018-01-22T14:52:27.350Z,4.73
2018-01-22T14:54:56.331Z,6.63
2018-01-22T14:57:26.491Z,6.60
2018-01-22T14:59:55.739Z,4.70
2018-01-22T15:02:24.965Z,5.57
2018-01-22T15:04:54.485Z,8.67
2018-01-22T15:07:23.766Z,6.67
2018-01-22T15:09:52.810Z,9.77
2018-01-22T15:12:22.169Z,7.03
2018-01-22T15:14:51.892Z,6.27
2018-01-22T15:17:21.382Z,5.83
2018-01-22T15:19:50.684Z,6.23
2018-01-22T15:22:20.028Z,10.23
2018-01-22T15:24:49.496Z,7.77
2018-01-22T15:27:18.766Z,5.90
2018-01-22T15:29:47.992Z,6.80
2018-01-22T15:32:17.339Z,6.00
2018-01-22T15:34:46.294Z,7.43
2018-01-22T15:37:15.286Z,5.57
2018-01-22T15:39:44.928Z,8.30
2018-01-22T15:42:14.167Z,5.83
2018-01-22T15:44:43.674Z,12.47
2018-01-22T15:47:12.949Z,10.77
2018-01-22T15:49:42.721Z,10.80
2018-01-22T15:52:11.945Z,9.70
2018-01-22T15:54:40.965Z,8.20
2018-01-22T15:57:10.447Z,11.50
2018-01-22T15:59:40.139Z,8.40
2018-01-22T16:02:09.832Z,6.77
2018-01-22T16:04:39.166Z,10.93
2018-01-22T16:07:09.017Z,6.90
2018-01-22T16:09:39.066Z,8.33
2018-01-22T16:12:08.113Z,10.80
2018-01-22T16:14:38.792Z,12.20
2018-01-22T16:17:07.739Z,9.00
2018-01-22T16:19:36.967Z,9.63
2018-01-22T16:22:06.092Z,10.17
2018-01-22T16:24:35.332Z,8.00
2018-01-22T16:27:04.362Z,10.73
2018-01-22T16:29:33.581Z,7.97
2018-01-22T16:32:02.643Z,9.27
2018-01-22T16:34:31.590Z,8.03
2018-01-22T16:37:01.239Z,10.80
2018-01-22T16:39:30.583Z,9.67
2018-01-22T16:42:00.223Z,10.13
2018-01-22T16:44:29.943Z,20.33
2018-01-22T16:47:05.234Z,12.00
2018-01-22T16:49:34.244Z,13.33
2018-01-22T16:52:03.409Z,15.43
2018-01-22T16:54:32.450Z,16.27
2018-01-22T16:57:01.386Z,11.93
2018-01-22T16:59:30.619Z,14.77
2018-01-22T17:02:00.133Z,19.27
2018-01-22T17:04:29.042Z,10.70
2018-01-22T17:06:59.153Z,14.53
2018-01-22T17:09:29.879Z,14.63
2018-01-22T17:11:59.972Z,18.17
2018-01-22T17:14:28.890Z,19.47
2018-01-22T17:16:57.994Z,17.97
2018-01-22T17:19:27.042Z,16.60
2018-01-22T17:21:55.971Z,16.20
2018-01-22T17:24:25.376Z,25.97
2018-01-22T17:26:54.890Z,13.30
2018-01-22T17:29:24.149Z,18.83
2018-01-22T17:31:54.224Z,16.30
2018-01-22T17:34:23.358Z,20.97
2018-01-22T17:36:53.393Z,18.60
2018-01-22T17:39:22.428Z,19.57
2018-01-22T17:41:51.582Z,14.47
2018-01-22T17:44:20.603Z,13.70
2018-01-22T17:46:54.417Z,16.40
2018-01-22T17:49:24.777Z,14.83
2018-01-22T17:51:55.081Z,12.50
2018-01-22T17:54:24.226Z,12.70
2018-01-22T17:56:53.213Z,15.37
2018-01-22T17:59:22.184Z,15.00
2018-01-22T18:01:52.820Z,18.93
2018-01-22T18:04:22.001Z,25.03
2018-01-22T18:06:51.179Z,16.23
2018-01-22T18:09:21.095Z,17.70
2018-01-22T18:11:51.549Z,15.80
2018-01-22T18:14:20.540Z,19.53
2018-01-22T18:16:49.858Z,14.00
2018-01-22T18:19:19.178Z,16.20
2018-01-22T18:21:48.818Z,21.07
2018-01-22T18:24:19.582Z,17.17
2018-01-22T18:26:48.621Z,16.40
2018-01-22T18:29:18.961Z,19.90
2018-01-22T18:31:49.014Z,20.13
2018-01-22T18:34:18.110Z,22.73
2018-01-22T18:36:47.162Z,13.17
2018-01-22T18:39:16.073Z,25.90
2018-01-22T18:41:45.061Z,17.87
2018-01-22T18:44:14.904Z,15.87
2018-01-22T18:46:44.905Z,20.17
2018-01-22T18:49:14.901Z,18.47
2018-01-22T18:51:44.053Z,21.17
2018-01-22T18:54:13.058Z,19.80
2018-01-22T18:56:42.002Z,26.03
2018-01-22T18:59:11.158Z,32.70
2018-01-22T19:01:40.297Z,28.87
2018-01-22T19:04:09.274Z,32.83
2018-01-22T19:06:38.246Z,32.07
2018-01-22T19:09:07.390Z,37.77
2018-01-22T19:11:36.834Z,29.00
2018-01-22T19:14:06.472Z,28.00
2018-01-22T19:16:35.456Z,28.67
2018-01-22T19:19:04.644Z,19.53
2018-01-22T19:21:34.674Z,27.27
2018-01-22T19:24:03.722Z,41.17
2018-01-22T19:26:32.849Z,25.83
2018-01-22T19:29:01.867Z,27.37
2018-01-22T19:31:31.003Z,26.70
2018-01-22T19:34:00.068Z,31.57
2018-01-22T19:36:29.169Z,22.27
2018-01-22T19:38:58.417Z,20.20
2018-01-22T19:41:27.634Z,25.67
2018-01-22T19:43:56.824Z,19.87
2018-01-22T19:46:25.857Z,26.17
2018-01-22T19:48:54.964Z,19.23
2018-01-22T19:51:23.999Z,21.20
2018-01-22T19:53:54.512Z,24.17
2018-01-22T19:56:23.949Z,25.63
2018-01-22T19:58:53.245Z,22.60
2018-01-22T20:01:22.295Z,25.53
2018-01-22T20:03:51.426Z,26.47
2018-01-22T20:06:20.455Z,26.80
2018-01-22T20:08:49.399Z,22.97
2018-01-22T20:11:19.016Z,24.10
2018-01-22T20:13:48.037Z,24.30
2018-01-22T20:16:17.440Z,22.07
2018-01-22T20:18:46.515Z,20.20
2018-01-22T20:21:15.718Z,23.83
2018-01-22T20:23:44.851Z,24.17
2018-01-22T20:26:14.158Z,24.40
2018-01-22T20:28:43.440Z,28.50
2018-01-22T20:31:12.663Z,22.53
2018-01-22T20:33:42.424Z,27.87
2018-01-22T20:36:11.955Z,22.47
2018-01-22T20:38:40.926Z,23.53
2018-01-22T20:41:09.919Z,26.83
2018-01-22T20:43:39.567Z,25.90
2018-01-22T20:46:08.599Z,29.70
2018-01-22T20:48:37.663Z,26.57
2018-01-22T20:51:06.704Z,21.67
2018-01-22T20:53:35.624Z,21.10
2018-01-22T20:56:04.666Z,19.77
2018-01-22T20:58:33.712Z,21.03
2018-01-22T21:01:02.912Z,24.43
2018-01-22T21:03:31.961Z,21.57
2018-01-22T21:06:01.691Z,24.10
2018-01-22T21:08:30.772Z,20.80
2018-01-22T21:10:59.803Z,26.23
2018-01-22T21:13:30.679Z,26.80
2018-01-22T21:16:00.954Z,24.40
2018-01-22T21:18:30.703Z,23.80
2018-01-22T21:21:00.668Z,27.30
2018-01-22T21:23:29.591Z,24.17
2018-01-22T21:26:02.210Z,24.57
2018-01-22T21:28:32.344Z,21.10
2018-01-22T21:31:03.127Z,21.33
2018-01-22T21:33:32.241Z,23.00
2018-01-22T21:36:02.016Z,18.80
2018-01-22T21:38:30.966Z,17.03
2018-01-22T21:41:00.060Z,28.17
2018-01-22T21:43:28.998Z,22.00
2018-01-22T21:45:58.138Z,19.53
2018-01-22T21:48:27.406Z,20.27
2018-01-22T21:50:56.340Z,19.47
2018-01-22T21:53:25.427Z,22.40
2018-01-22T21:55:54.531Z,19.63
2018-01-22T21:58:23.580Z,21.53
2018-01-22T22:00:52.733Z,19.47
2018-01-22T22:03:22.190Z,23.43
2018-01-22T22:05:51.185Z,21.07
2018-01-22T22:08:20.204Z,23.73
2018-01-22T22:10:49.288Z,23.40
2018-01-22T22:13:18.218Z,21.93
2018-01-22T22:15:47.322Z,25.03
2018-01-22T22:18:17.325Z,24.40
2018-01-22T22:20:46.731Z,27.97
2018-01-22T22:23:16.645Z,24.30
2018-01-22T22:25:45.672Z,25.63
2018-01-22T22:28:14.704Z,25.77
2018-01-22T22:30:43.759Z,30.13
2018-01-22T22:33:12.673Z,25.07
2018-01-22T22:35:41.712Z,30.50
2018-01-22T22:38:11.247Z,24.17
2018-01-22T22:40:40.267Z,26.97
2018-01-22T22:43:09.299Z,23.70
2018-01-22T22:45:38.353Z,22.53
2018-01-22T22:48:07.600Z,20.17
2018-01-22T22:50:36.591Z,20.40
2018-01-22T22:53:05.576Z,23.73
2018-01-22T22:55:34.513Z,20.37
2018-01-22T22:58:03.427Z,22.40
2018-01-22T23:00:32.444Z,19.10
2018-01-22T23:03:01.566Z,25.03
2018-01-22T23:05:30.514Z,20.60
2018-01-22T23:07:59.989Z,20.60
2018-01-22T23:10:28.898Z,12.13
2018-01-22T23:12:58.100Z,19.17
2018-01-22T23:15:27.081Z,19.20
2018-01-22T23:17:56.059Z,22.57
2018-01-22T23:20:25.833Z,16.77
2018-01-22T23:22:55.113Z,17.00
2018-01-22T23:25:24.192Z,19.27
2018-01-22T23:27:53.788Z,21.90
2018-01-22T23:30:23.507Z,20.83
2018-01-22T23:32:52.549Z,20.57
2018-01-22T23:35:21.475Z,16.37
2018-01-22T23:37:50.774Z,19.30
2018-01-22T23:40:20.532Z,17.17
2018-01-22T23:42:49.530Z,14.33
2018-01-22T23:45:18.584Z,15.47
2018-01-22T23:47:47.582Z,16.73
2018-01-22T23:50:16.718Z,20.73
2018-01-22T23:52:45.831Z,14.27
2018-01-22T23:55:15.774Z,19.83
2018-01-22T23:57:44.719Z,18.97
